sensor_id;sensor_type;location;lat;lon;timestamp;P1;durP1;ratioP1;P2;durP2;ratioP2
18596;SDS011;9428;50.950;6.912;2023-02-28T00:00:45;6.70;;;2.40;;
18596;SDS011;9428;50.950;6.912;2023-02-28T00:03:33;5.27;;;1.93;;
18596;SDS011;9428;50.950;6.912;2023-02-28T00:06:21;6.57;;;2.47;;
18596;SDS011;9428;50.950;6.912;2023-02-28T00:09:10;3.47;;;1.80;;
18596;SDS011;9428;50.950;6.912;2023-02-28T00:11:58;5.30;;;2.30;;
18596;SDS011;9428;50.950;6.912;2023-02-28T00:14:45;2.20;;;1.50;;
18596;SDS011;9428;50.950;6.912;2023-02-28T00:17:32;2.40;;;1.93;;
18596;SDS011;9428;50.950;6.912;2023-02-28T00:20:19;5.43;;;2.40;;
18596;SDS011;9428;50.950;6.912;2023-02-28T00:23:07;3.97;;;2.40;;
18596;SDS011;9428;50.950;6.912;2023-02-28T00:25:56;3.00;;;2.20;;
18596;SDS011;9428;50.950;6.912;2023-02-28T00:28:43;4.00;;;2.13;;
18596;SDS011;9428;50.950;6.912;2023-02-28T00:31:31;5.67;;;2.00;;
18596;SDS011;9428;50.950;6.912;2023-02-28T00:34:18;3.67;;;2.40;;
18596;SDS011;9428;50.950;6.912;2023-02-28T00:37:06;3.97;;;2.03;;
18596;SDS011;9428;50.950;6.912;2023-02-28T00:39:54;5.53;;;1.97;;
18596;SDS011;9428;50.950;6.912;2023-02-28T00:42:42;3.37;;;2.20;;
18596;SDS011;9428;50.950;6.912;2023-02-28T00:45:30;1.83;;;1.40;;
18596;SDS011;9428;50.950;6.912;2023-02-28T00:48:17;3.93;;;1.97;;
18596;SDS011;9428;50.950;6.912;2023-02-28T00:51:04;3.70;;;1.83;;
18596;SDS011;9428;50.950;6.912;2023-02-28T00:53:52;4.70;;;2.10;;
18596;SDS011;9428;50.950;6.912;2023-02-28T00:56:39;3.33;;;1.93;;
18596;SDS011;9428;50.950;6.912;2023-02-28T00:59:28;2.27;;;1.80;;
18596;SDS011;9428;50.950;6.912;2023-02-28T01:02:15;3.70;;;2.00;;
18596;SDS011;9428;50.950;6.912;2023-02-28T01:05:03;3.70;;;1.87;;
18596;SDS011;9428;50.950;6.912;2023-02-28T01:07:51;4.10;;;1.80;;
18596;SDS011;9428;50.950;6.912;2023-02-28T01:10:38;3.43;;;1.63;;
18596;SDS011;9428;50.950;6.912;2023-02-28T01:13:26;4.33;;;1.70;;
18596;SDS011;9428;50.950;6.912;2023-02-28T01:16:15;2.03;;;1.60;;
18596;SDS011;9428;50.950;6.912;2023-02-28T01:19:02;3.87;;;1.83;;
18596;SDS011;9428;50.950;6.912;2023-02-28T01:21:50;3.93;;;2.00;;
18596;SDS011;9428;50.950;6.912;2023-02-28T01:24:37;6.50;;;2.30;;
18596;SDS011;9428;50.950;6.912;2023-02-28T01:27:24;4.57;;;2.10;;
18596;SDS011;9428;50.950;6.912;2023-02-28T01:30:12;3.10;;;2.00;;
18596;SDS011;9428;50.950;6.912;2023-02-28T01:33:01;2.33;;;2.03;;
18596;SDS011;9428;50.950;6.912;2023-02-28T01:35:48;3.60;;;2.07;;
18596;SDS011;9428;50.950;6.912;2023-02-28T01:38:35;2.40;;;1.50;;
18596;SDS011;9428;50.950;6.912;2023-02-28T01:41:24;4.17;;;2.10;;
18596;SDS011;9428;50.950;6.912;2023-02-28T01:48:03;3.90;;;2.37;;
18596;SDS011;9428;50.950;6.912;2023-02-28T01:50:53;3.10;;;1.70;;
18596;SDS011;9428;50.950;6.912;2023-02-28T01:53:45;2.90;;;1.90;;
18596;SDS011;9428;50.950;6.912;2023-02-28T01:56:35;2.00;;;1.80;;
18596;SDS011;9428;50.950;6.912;2023-02-28T01:59:24;2.93;;;1.83;;
18596;SDS011;9428;50.950;6.912;2023-02-28T02:02:16;2.97;;;2.00;;
18596;SDS011;9428;50.950;6.912;2023-02-28T02:05:07;3.77;;;1.90;;
18596;SDS011;9428;50.950;6.912;2023-02-28T02:07:57;2.33;;;1.67;;
18596;SDS011;9428;50.950;6.912;2023-02-28T02:10:48;3.13;;;1.87;;
18596;SDS011;9428;50.950;6.912;2023-02-28T02:13:49;6.27;;;2.30;;
18596;SDS011;9428;50.950;6.912;2023-02-28T02:17:00;5.10;;;1.87;;
18596;SDS011;9428;50.950;6.912;2023-02-28T02:23:32;2.77;;;1.77;;
18596;SDS011;9428;50.950;6.912;2023-02-28T02:26:41;3.93;;;2.20;;
18596;SDS011;9428;50.950;6.912;2023-02-28T02:33:10;2.43;;;1.87;;
18596;SDS011;9428;50.950;6.912;2023-02-28T02:36:14;8.23;;;1.97;;
18596;SDS011;9428;50.950;6.912;2023-02-28T02:39:08;2.50;;;1.50;;
18596;SDS011;9428;50.950;6.912;2023-02-28T02:42:01;2.87;;;1.83;;
18596;SDS011;9428;50.950;6.912;2023-02-28T02:44:58;3.17;;;1.77;;
18596;SDS011;9428;50.950;6.912;2023-02-28T02:47:48;5.97;;;1.90;;
18596;SDS011;9428;50.950;6.912;2023-02-28T02:50:37;2.90;;;1.80;;
18596;SDS011;9428;50.950;6.912;2023-02-28T02:53:28;3.93;;;1.73;;
18596;SDS011;9428;50.950;6.912;2023-02-28T02:56:20;2.27;;;1.60;;
18596;SDS011;9428;50.950;6.912;2023-02-28T02:59:13;3.80;;;2.20;;
18596;SDS011;9428;50.950;6.912;2023-02-28T03:02:07;2.70;;;1.77;;
18596;SDS011;9428;50.950;6.912;2023-02-28T03:04:58;2.93;;;1.93;;
18596;SDS011;9428;50.950;6.912;2023-02-28T03:07:48;2.87;;;1.90;;
18596;SDS011;9428;50.950;6.912;2023-02-28T03:10:38;2.10;;;1.60;;
18596;SDS011;9428;50.950;6.912;2023-02-28T03:13:39;2.03;;;1.67;;
18596;SDS011;9428;50.950;6.912;2023-02-28T03:16:36;5.33;;;1.83;;
18596;SDS011;9428;50.950;6.912;2023-02-28T03:22:52;4.90;;;2.00;;
18596;SDS011;9428;50.950;6.912;2023-02-28T03:25:54;3.83;;;2.03;;
18596;SDS011;9428;50.950;6.912;2023-02-28T03:28:49;3.53;;;1.83;;
18596;SDS011;9428;50.950;6.912;2023-02-28T03:31:43;3.03;;;1.70;;
18596;SDS011;9428;50.950;6.912;2023-02-28T03:34:34;3.87;;;2.10;;
18596;SDS011;9428;50.950;6.912;2023-02-28T03:37:25;3.43;;;2.03;;
18596;SDS011;9428;50.950;6.912;2023-02-28T03:40:15;3.17;;;1.77;;
18596;SDS011;9428;50.950;6.912;2023-02-28T03:43:09;3.50;;;2.03;;
18596;SDS011;9428;50.950;6.912;2023-02-28T03:46:02;3.63;;;1.90;;
18596;SDS011;9428;50.950;6.912;2023-02-28T03:48:54;7.57;;;1.93;;
18596;SDS011;9428;50.950;6.912;2023-02-28T03:51:44;2.87;;;1.93;;
18596;SDS011;9428;50.950;6.912;2023-02-28T03:54:33;2.97;;;2.13;;
18596;SDS011;9428;50.950;6.912;2023-02-28T03:57:26;2.03;;;1.70;;
18596;SDS011;9428;50.950;6.912;2023-02-28T04:00:21;2.60;;;2.17;;
18596;SDS011;9428;50.950;6.912;2023-02-28T04:03:14;4.10;;;2.30;;
18596;SDS011;9428;50.950;6.912;2023-02-28T04:06:01;6.30;;;2.20;;
18596;SDS011;9428;50.950;6.912;2023-02-28T04:08:50;2.03;;;1.77;;
18596;SDS011;9428;50.950;6.912;2023-02-28T04:11:38;5.13;;;2.20;;
18596;SDS011;9428;50.950;6.912;2023-02-28T04:14:27;5.33;;;2.40;;
18596;SDS011;9428;50.950;6.912;2023-02-28T04:17:15;5.17;;;2.60;;
18596;SDS011;9428;50.950;6.912;2023-02-28T04:20:04;4.03;;;2.40;;
18596;SDS011;9428;50.950;6.912;2023-02-28T04:22:54;4.07;;;2.37;;
18596;SDS011;9428;50.950;6.912;2023-02-28T04:25:42;3.77;;;2.17;;
18596;SDS011;9428;50.950;6.912;2023-02-28T04:28:29;6.77;;;2.17;;
18596;SDS011;9428;50.950;6.912;2023-02-28T04:31:16;3.03;;;2.10;;
18596;SDS011;9428;50.950;6.912;2023-02-28T04:34:05;4.63;;;2.10;;
18596;SDS011;9428;50.950;6.912;2023-02-28T04:36:52;3.87;;;2.37;;
18596;SDS011;9428;50.950;6.912;2023-02-28T04:39:40;3.70;;;2.10;;
18596;SDS011;9428;50.950;6.912;2023-02-28T04:42:28;3.00;;;2.20;;
18596;SDS011;9428;50.950;6.912;2023-02-28T04:45:20;2.80;;;1.87;;
18596;SDS011;9428;50.950;6.912;2023-02-28T04:48:08;4.50;;;2.33;;
18596;SDS011;9428;50.950;6.912;2023-02-28T04:50:59;2.53;;;2.07;;
18596;SDS011;9428;50.950;6.912;2023-02-28T04:53:47;4.27;;;2.23;;
18596;SDS011;9428;50.950;6.912;2023-02-28T04:56:35;2.60;;;1.73;;
18596;SDS011;9428;50.950;6.912;2023-02-28T04:59:22;3.50;;;2.23;;
18596;SDS011;9428;50.950;6.912;2023-02-28T05:02:09;2.63;;;2.10;;
18596;SDS011;9428;50.950;6.912;2023-02-28T05:04:56;6.60;;;2.30;;
18596;SDS011;9428;50.950;6.912;2023-02-28T05:07:45;3.30;;;2.10;;
18596;SDS011;9428;50.950;6.912;2023-02-28T05:10:32;3.10;;;2.30;;
18596;SDS011;9428;50.950;6.912;2023-02-28T05:13:20;3.47;;;2.03;;
18596;SDS011;9428;50.950;6.912;2023-02-28T05:16:08;3.43;;;2.40;;
18596;SDS011;9428;50.950;6.912;2023-02-28T05:18:55;6.43;;;2.40;;
18596;SDS011;9428;50.950;6.912;2023-02-28T05:21:48;3.67;;;2.27;;
18596;SDS011;9428;50.950;6.912;2023-02-28T05:24:39;5.43;;;2.70;;
18596;SDS011;9428;50.950;6.912;2023-02-28T05:27:27;3.63;;;2.23;;
18596;SDS011;9428;50.950;6.912;2023-02-28T05:30:15;4.20;;;2.20;;
18596;SDS011;9428;50.950;6.912;2023-02-28T05:33:02;4.03;;;2.33;;
18596;SDS011;9428;50.950;6.912;2023-02-28T05:35:49;3.43;;;2.20;;
18596;SDS011;9428;50.950;6.912;2023-02-28T05:38:37;3.97;;;2.43;;
18596;SDS011;9428;50.950;6.912;2023-02-28T05:41:25;2.87;;;2.13;;
18596;SDS011;9428;50.950;6.912;2023-02-28T05:44:13;6.70;;;3.07;;
18596;SDS011;9428;50.950;6.912;2023-02-28T05:47:00;4.57;;;2.23;;
18596;SDS011;9428;50.950;6.912;2023-02-28T05:49:47;4.30;;;2.20;;
18596;SDS011;9428;50.950;6.912;2023-02-28T05:52:34;3.07;;;1.93;;
18596;SDS011;9428;50.950;6.912;2023-02-28T05:55:22;6.07;;;2.00;;
18596;SDS011;9428;50.950;6.912;2023-02-28T05:58:10;4.30;;;2.17;;
18596;SDS011;9428;50.950;6.912;2023-02-28T06:00:58;3.63;;;2.23;;
18596;SDS011;9428;50.950;6.912;2023-02-28T06:03:46;7.23;;;2.40;;
18596;SDS011;9428;50.950;6.912;2023-02-28T06:06:34;2.87;;;1.93;;
18596;SDS011;9428;50.950;6.912;2023-02-28T06:09:22;3.23;;;2.20;;
18596;SDS011;9428;50.950;6.912;2023-02-28T06:12:10;4.23;;;1.70;;
18596;SDS011;9428;50.950;6.912;2023-02-28T06:14:58;3.50;;;2.43;;
18596;SDS011;9428;50.950;6.912;2023-02-28T06:17:46;2.00;;;1.80;;
18596;SDS011;9428;50.950;6.912;2023-02-28T06:20:33;5.33;;;2.30;;
18596;SDS011;9428;50.950;6.912;2023-02-28T06:23:21;3.97;;;2.20;;
18596;SDS011;9428;50.950;6.912;2023-02-28T06:26:09;3.33;;;2.17;;
18596;SDS011;9428;50.950;6.912;2023-02-28T06:28:56;5.83;;;2.27;;
18596;SDS011;9428;50.950;6.912;2023-02-28T06:31:45;2.97;;;2.00;;
18596;SDS011;9428;50.950;6.912;2023-02-28T06:34:32;5.13;;;2.23;;
18596;SDS011;9428;50.950;6.912;2023-02-28T06:37:20;3.27;;;2.00;;
18596;SDS011;9428;50.950;6.912;2023-02-28T06:40:08;3.03;;;2.30;;
18596;SDS011;9428;50.950;6.912;2023-02-28T06:42:56;3.40;;;2.00;;
18596;SDS011;9428;50.950;6.912;2023-02-28T06:45:43;3.47;;;2.30;;
18596;SDS011;9428;50.950;6.912;2023-02-28T06:48:32;3.97;;;2.23;;
18596;SDS011;9428;50.950;6.912;2023-02-28T06:51:20;3.73;;;2.43;;
18596;SDS011;9428;50.950;6.912;2023-02-28T06:54:09;5.57;;;2.20;;
18596;SDS011;9428;50.950;6.912;2023-02-28T06:56:57;3.50;;;2.30;;
18596;SDS011;9428;50.950;6.912;2023-02-28T06:59:44;5.00;;;2.10;;
18596;SDS011;9428;50.950;6.912;2023-02-28T07:02:32;3.57;;;2.23;;
18596;SDS011;9428;50.950;6.912;2023-02-28T07:05:20;2.20;;;1.80;;
18596;SDS011;9428;50.950;6.912;2023-02-28T07:08:08;4.63;;;2.50;;
18596;SDS011;9428;50.950;6.912;2023-02-28T07:10:55;5.70;;;1.90;;
18596;SDS011;9428;50.950;6.912;2023-02-28T07:13:43;5.43;;;2.40;;
18596;SDS011;9428;50.950;6.912;2023-02-28T07:16:32;3.83;;;2.10;;
18596;SDS011;9428;50.950;6.912;2023-02-28T07:19:19;4.27;;;2.17;;
18596;SDS011;9428;50.950;6.912;2023-02-28T07:22:08;7.63;;;3.73;;
18596;SDS011;9428;50.950;6.912;2023-02-28T07:24:55;2.23;;;1.87;;
18596;SDS011;9428;50.950;6.912;2023-02-28T07:27:42;4.23;;;2.33;;
18596;SDS011;9428;50.950;6.912;2023-02-28T07:30:29;3.03;;;2.20;;
18596;SDS011;9428;50.950;6.912;2023-02-28T07:33:17;2.33;;;1.60;;
18596;SDS011;9428;50.950;6.912;2023-02-28T07:36:05;4.00;;;1.73;;
18596;SDS011;9428;50.950;6.912;2023-02-28T07:38:55;5.20;;;2.53;;
18596;SDS011;9428;50.950;6.912;2023-02-28T07:41:44;3.83;;;2.37;;
18596;SDS011;9428;50.950;6.912;2023-02-28T07:44:31;4.23;;;2.00;;
18596;SDS011;9428;50.950;6.912;2023-02-28T07:47:19;3.60;;;2.20;;
18596;SDS011;9428;50.950;6.912;2023-02-28T07:50:07;3.43;;;2.10;;
18596;SDS011;9428;50.950;6.912;2023-02-28T07:52:55;2.87;;;1.77;;
18596;SDS011;9428;50.950;6.912;2023-02-28T07:55:44;2.90;;;1.80;;
18596;SDS011;9428;50.950;6.912;2023-02-28T07:58:31;2.67;;;1.87;;
18596;SDS011;9428;50.950;6.912;2023-02-28T08:01:19;2.70;;;2.00;;
18596;SDS011;9428;50.950;6.912;2023-02-28T08:04:07;3.20;;;2.00;;
18596;SDS011;9428;50.950;6.912;2023-02-28T08:06:54;2.10;;;1.70;;
18596;SDS011;9428;50.950;6.912;2023-02-28T08:09:41;2.03;;;1.70;;
18596;SDS011;9428;50.950;6.912;2023-02-28T08:12:31;3.33;;;2.10;;
18596;SDS011;9428;50.950;6.912;2023-02-28T08:15:18;3.70;;;2.23;;
18596;SDS011;9428;50.950;6.912;2023-02-28T08:18:05;2.73;;;2.00;;
18596;SDS011;9428;50.950;6.912;2023-02-28T08:20:52;4.70;;;2.07;;
18596;SDS011;9428;50.950;6.912;2023-02-28T08:23:40;4.70;;;2.07;;
18596;SDS011;9428;50.950;6.912;2023-02-28T08:26:27;5.03;;;1.87;;
18596;SDS011;9428;50.950;6.912;2023-02-28T08:29:15;3.20;;;1.80;;
18596;SDS011;9428;50.950;6.912;2023-02-28T08:32:03;4.10;;;1.80;;
18596;SDS011;9428;50.950;6.912;2023-02-28T08:34:51;1.93;;;1.73;;
18596;SDS011;9428;50.950;6.912;2023-02-28T08:37:38;3.53;;;1.77;;
18596;SDS011;9428;50.950;6.912;2023-02-28T08:40:25;1.93;;;1.60;;
18596;SDS011;9428;50.950;6.912;2023-02-28T08:43:12;3.30;;;1.90;;
18596;SDS011;9428;50.950;6.912;2023-02-28T08:46:01;2.83;;;1.93;;
18596;SDS011;9428;50.950;6.912;2023-02-28T08:48:51;3.90;;;2.30;;
18596;SDS011;9428;50.950;6.912;2023-02-28T08:51:39;3.13;;;1.87;;
18596;SDS011;9428;50.950;6.912;2023-02-28T08:54:26;3.80;;;2.07;;
18596;SDS011;9428;50.950;6.912;2023-02-28T08:57:16;2.23;;;1.57;;
18596;SDS011;9428;50.950;6.912;2023-02-28T09:00:03;3.10;;;1.80;;
18596;SDS011;9428;50.950;6.912;2023-02-28T09:02:53;1.93;;;1.40;;
18596;SDS011;9428;50.950;6.912;2023-02-28T09:05:40;2.00;;;1.50;;
18596;SDS011;9428;50.950;6.912;2023-02-28T09:08:29;1.73;;;1.50;;
18596;SDS011;9428;50.950;6.912;2023-02-28T09:11:17;2.37;;;1.50;;
18596;SDS011;9428;50.950;6.912;2023-02-28T09:14:05;2.50;;;1.90;;
18596;SDS011;9428;50.950;6.912;2023-02-28T09:16:52;2.30;;;1.50;;
18596;SDS011;9428;50.950;6.912;2023-02-28T09:19:41;1.90;;;1.30;;
18596;SDS011;9428;50.950;6.912;2023-02-28T09:22:29;1.57;;;1.40;;
18596;SDS011;9428;50.950;6.912;2023-02-28T09:25:16;2.40;;;1.40;;
18596;SDS011;9428;50.950;6.912;2023-02-28T09:28:03;2.07;;;1.80;;
18596;SDS011;9428;50.950;6.912;2023-02-28T09:30:52;1.17;;;1.07;;
18596;SDS011;9428;50.950;6.912;2023-02-28T09:33:40;4.70;;;1.77;;
18596;SDS011;9428;50.950;6.912;2023-02-28T09:36:29;2.63;;;1.40;;
18596;SDS011;9428;50.950;6.912;2023-02-28T09:39:16;7.43;;;1.60;;
18596;SDS011;9428;50.950;6.912;2023-02-28T09:42:03;3.37;;;1.63;;
18596;SDS011;9428;50.950;6.912;2023-02-28T09:44:53;1.70;;;1.50;;
18596;SDS011;9428;50.950;6.912;2023-02-28T09:47:42;2.73;;;1.70;;
18596;SDS011;9428;50.950;6.912;2023-02-28T09:50:33;4.27;;;1.70;;
18596;SDS011;9428;50.950;6.912;2023-02-28T09:53:25;2.23;;;1.40;;
18596;SDS011;9428;50.950;6.912;2023-02-28T09:56:20;5.50;;;2.03;;
18596;SDS011;9428;50.950;6.912;2023-02-28T09:59:13;2.30;;;1.60;;
18596;SDS011;9428;50.950;6.912;2023-02-28T10:02:13;2.67;;;1.97;;
18596;SDS011;9428;50.950;6.912;2023-02-28T10:05:08;3.97;;;1.60;;
18596;SDS011;9428;50.950;6.912;2023-02-28T10:08:05;2.00;;;1.60;;
18596;SDS011;9428;50.950;6.912;2023-02-28T10:11:00;4.47;;;1.50;;
18596;SDS011;9428;50.950;6.912;2023-02-28T10:13:51;2.90;;;1.53;;
18596;SDS011;9428;50.950;6.912;2023-02-28T10:16:47;2.97;;;1.60;;
18596;SDS011;9428;50.950;6.912;2023-02-28T10:19:40;2.77;;;1.90;;
18596;SDS011;9428;50.950;6.912;2023-02-28T10:22:34;8.00;;;4.20;;
18596;SDS011;9428;50.950;6.912;2023-02-28T10:25:26;4.50;;;2.60;;
18596;SDS011;9428;50.950;6.912;2023-02-28T10:28:16;2.80;;;2.37;;
18596;SDS011;9428;50.950;6.912;2023-02-28T10:31:04;5.70;;;2.57;;
18596;SDS011;9428;50.950;6.912;2023-02-28T10:33:51;6.23;;;3.00;;
18596;SDS011;9428;50.950;6.912;2023-02-28T10:36:38;6.57;;;3.27;;
18596;SDS011;9428;50.950;6.912;2023-02-28T10:39:38;4.43;;;2.57;;
18596;SDS011;9428;50.950;6.912;2023-02-28T10:42:28;6.07;;;2.50;;
18596;SDS011;9428;50.950;6.912;2023-02-28T10:45:18;5.00;;;2.40;;
18596;SDS011;9428;50.950;6.912;2023-02-28T10:48:06;2.40;;;1.73;;
18596;SDS011;9428;50.950;6.912;2023-02-28T10:51:23;2.70;;;1.83;;
18596;SDS011;9428;50.950;6.912;2023-02-28T10:54:15;2.93;;;1.77;;
18596;SDS011;9428;50.950;6.912;2023-02-28T10:57:05;3.03;;;1.93;;
18596;SDS011;9428;50.950;6.912;2023-02-28T11:00:06;2.73;;;2.00;;
18596;SDS011;9428;50.950;6.912;2023-02-28T11:03:01;2.80;;;1.93;;
18596;SDS011;9428;50.950;6.912;2023-02-28T11:06:21;4.30;;;2.83;;
18596;SDS011;9428;50.950;6.912;2023-02-28T11:09:21;2.67;;;1.67;;
18596;SDS011;9428;50.950;6.912;2023-02-28T11:12:19;5.27;;;2.90;;
18596;SDS011;9428;50.950;6.912;2023-02-28T11:15:18;6.00;;;3.27;;
18596;SDS011;9428;50.950;6.912;2023-02-28T11:18:19;3.63;;;2.00;;
18596;SDS011;9428;50.950;6.912;2023-02-28T11:21:10;4.30;;;2.90;;
18596;SDS011;9428;50.950;6.912;2023-02-28T11:24:04;3.97;;;2.90;;
18596;SDS011;9428;50.950;6.912;2023-02-28T11:26:59;2.80;;;1.87;;
18596;SDS011;9428;50.950;6.912;2023-02-28T11:29:47;6.53;;;2.20;;
18596;SDS011;9428;50.950;6.912;2023-02-28T11:32:34;3.77;;;1.97;;
18596;SDS011;9428;50.950;6.912;2023-02-28T11:35:24;2.57;;;1.80;;
18596;SDS011;9428;50.950;6.912;2023-02-28T11:38:15;2.57;;;1.67;;
18596;SDS011;9428;50.950;6.912;2023-02-28T11:41:05;4.10;;;2.13;;
18596;SDS011;9428;50.950;6.912;2023-02-28T11:44:18;3.00;;;1.90;;
18596;SDS011;9428;50.950;6.912;2023-02-28T11:47:15;2.73;;;2.07;;
18596;SDS011;9428;50.950;6.912;2023-02-28T11:50:16;3.93;;;2.33;;
18596;SDS011;9428;50.950;6.912;2023-02-28T11:53:22;4.87;;;2.70;;
18596;SDS011;9428;50.950;6.912;2023-02-28T11:56:36;2.60;;;1.90;;
18596;SDS011;9428;50.950;6.912;2023-02-28T11:59:32;2.63;;;1.77;;
18596;SDS011;9428;50.950;6.912;2023-02-28T12:02:28;2.20;;;2.00;;
18596;SDS011;9428;50.950;6.912;2023-02-28T12:05:23;3.07;;;2.10;;
18596;SDS011;9428;50.950;6.912;2023-02-28T12:08:22;4.00;;;2.20;;
18596;SDS011;9428;50.950;6.912;2023-02-28T12:11:20;4.47;;;2.20;;
18596;SDS011;9428;50.950;6.912;2023-02-28T12:14:24;2.60;;;2.30;;
18596;SDS011;9428;50.950;6.912;2023-02-28T12:17:23;2.93;;;2.27;;
18596;SDS011;9428;50.950;6.912;2023-02-28T12:20:25;4.33;;;2.40;;
18596;SDS011;9428;50.950;6.912;2023-02-28T12:23:25;2.13;;;1.80;;
18596;SDS011;9428;50.950;6.912;2023-02-28T12:26:30;3.33;;;2.27;;
18596;SDS011;9428;50.950;6.912;2023-02-28T12:29:23;2.37;;;1.90;;
18596;SDS011;9428;50.950;6.912;2023-02-28T12:32:15;7.53;;;1.80;;
18596;SDS011;9428;50.950;6.912;2023-02-28T12:35:11;5.37;;;1.90;;
18596;SDS011;9428;50.950;6.912;2023-02-28T12:38:02;5.03;;;3.13;;
18596;SDS011;9428;50.950;6.912;2023-02-28T12:40:57;3.50;;;2.50;;
18596;SDS011;9428;50.950;6.912;2023-02-28T12:43:48;3.83;;;2.67;;
18596;SDS011;9428;50.950;6.912;2023-02-28T12:46:42;4.57;;;2.53;;
18596;SDS011;9428;50.950;6.912;2023-02-28T12:49:34;4.43;;;2.50;;
18596;SDS011;9428;50.950;6.912;2023-02-28T12:52:29;3.60;;;2.13;;
18596;SDS011;9428;50.950;6.912;2023-02-28T12:55:28;4.30;;;2.10;;
18596;SDS011;9428;50.950;6.912;2023-02-28T12:58:23;2.97;;;2.13;;
18596;SDS011;9428;50.950;6.912;2023-02-28T13:01:27;2.80;;;2.37;;
18596;SDS011;9428;50.950;6.912;2023-02-28T13:07:58;4.90;;;2.40;;
18596;SDS011;9428;50.950;6.912;2023-02-28T13:11:23;2.20;;;1.93;;
18596;SDS011;9428;50.950;6.912;2023-02-28T13:14:24;2.87;;;2.13;;
18596;SDS011;9428;50.950;6.912;2023-02-28T13:17:17;3.97;;;2.20;;
18596;SDS011;9428;50.950;6.912;2023-02-28T13:20:14;2.87;;;2.10;;
18596;SDS011;9428;50.950;6.912;2023-02-28T13:23:03;3.40;;;2.30;;
18596;SDS011;9428;50.950;6.912;2023-02-28T13:26:11;3.50;;;2.07;;
18596;SDS011;9428;50.950;6.912;2023-02-28T13:28:58;3.40;;;2.37;;
18596;SDS011;9428;50.950;6.912;2023-02-28T13:38:35;2.33;;;2.10;;
18596;SDS011;9428;50.950;6.912;2023-02-28T13:41:44;7.07;;;2.83;;
18596;SDS011;9428;50.950;6.912;2023-02-28T13:44:45;4.87;;;2.57;;
18596;SDS011;9428;50.950;6.912;2023-02-28T13:48:17;4.47;;;2.77;;
18596;SDS011;9428;50.950;6.912;2023-02-28T13:54:29;5.00;;;2.40;;
18596;SDS011;9428;50.950;6.912;2023-02-28T13:57:29;3.70;;;2.60;;
18596;SDS011;9428;50.950;6.912;2023-02-28T14:00:30;6.17;;;2.90;;
18596;SDS011;9428;50.950;6.912;2023-02-28T14:03:31;4.70;;;2.63;;
18596;SDS011;9428;50.950;6.912;2023-02-28T14:06:28;7.10;;;3.97;;
18596;SDS011;9428;50.950;6.912;2023-02-28T14:09:21;5.50;;;2.70;;
18596;SDS011;9428;50.950;6.912;2023-02-28T14:15:46;3.63;;;2.53;;
18596;SDS011;9428;50.950;6.912;2023-02-28T14:18:47;4.23;;;2.03;;
18596;SDS011;9428;50.950;6.912;2023-02-28T14:21:38;3.33;;;2.47;;
18596;SDS011;9428;50.950;6.912;2023-02-28T14:24:42;4.20;;;2.67;;
18596;SDS011;9428;50.950;6.912;2023-02-28T14:27:43;5.33;;;2.70;;
18596;SDS011;9428;50.950;6.912;2023-02-28T14:30:40;3.60;;;2.40;;
18596;SDS011;9428;50.950;6.912;2023-02-28T14:33:48;5.10;;;2.43;;
18596;SDS011;9428;50.950;6.912;2023-02-28T14:36:49;3.87;;;2.30;;
18596;SDS011;9428;50.950;6.912;2023-02-28T14:39:42;3.20;;;2.50;;
18596;SDS011;9428;50.950;6.912;2023-02-28T14:42:31;4.57;;;2.57;;
18596;SDS011;9428;50.950;6.912;2023-02-28T14:45:20;7.13;;;2.60;;
18596;SDS011;9428;50.950;6.912;2023-02-28T14:48:09;3.97;;;2.70;;
18596;SDS011;9428;50.950;6.912;2023-02-28T14:50:57;5.93;;;2.77;;
18596;SDS011;9428;50.950;6.912;2023-02-28T14:53:45;3.60;;;2.50;;
18596;SDS011;9428;50.950;6.912;2023-02-28T14:56:37;4.17;;;2.80;;
18596;SDS011;9428;50.950;6.912;2023-02-28T14:59:27;3.07;;;2.40;;
18596;SDS011;9428;50.950;6.912;2023-02-28T15:02:16;5.07;;;2.70;;
18596;SDS011;9428;50.950;6.912;2023-02-28T15:05:23;4.80;;;3.00;;
18596;SDS011;9428;50.950;6.912;2023-02-28T15:08:14;4.10;;;3.00;;
18596;SDS011;9428;50.950;6.912;2023-02-28T15:11:03;5.07;;;3.17;;
18596;SDS011;9428;50.950;6.912;2023-02-28T15:13:54;6.00;;;2.70;;
18596;SDS011;9428;50.950;6.912;2023-02-28T15:16:42;3.27;;;2.37;;
18596;SDS011;9428;50.950;6.912;2023-02-28T15:19:31;11.23;;;4.97;;
18596;SDS011;9428;50.950;6.912;2023-02-28T15:22:25;8.57;;;4.73;;
18596;SDS011;9428;50.950;6.912;2023-02-28T15:25:17;6.50;;;4.13;;
18596;SDS011;9428;50.950;6.912;2023-02-28T15:28:09;5.63;;;2.80;;
18596;SDS011;9428;50.950;6.912;2023-02-28T15:31:03;3.60;;;2.90;;
18596;SDS011;9428;50.950;6.912;2023-02-28T15:34:13;5.90;;;2.80;;
18596;SDS011;9428;50.950;6.912;2023-02-28T15:40:14;6.00;;;2.93;;
18596;SDS011;9428;50.950;6.912;2023-02-28T15:43:04;3.50;;;2.60;;
18596;SDS011;9428;50.950;6.912;2023-02-28T15:45:52;4.63;;;2.83;;
18596;SDS011;9428;50.950;6.912;2023-02-28T15:48:48;3.97;;;3.03;;
18596;SDS011;9428;50.950;6.912;2023-02-28T15:51:38;4.87;;;3.10;;
18596;SDS011;9428;50.950;6.912;2023-02-28T15:54:27;5.97;;;2.80;;
18596;SDS011;9428;50.950;6.912;2023-02-28T15:57:18;5.80;;;2.53;;
18596;SDS011;9428;50.950;6.912;2023-02-28T16:00:10;3.97;;;2.90;;
18596;SDS011;9428;50.950;6.912;2023-02-28T16:03:00;4.03;;;2.47;;
18596;SDS011;9428;50.950;6.912;2023-02-28T16:05:50;4.97;;;2.73;;
18596;SDS011;9428;50.950;6.912;2023-02-28T16:09:08;5.33;;;2.77;;
18596;SDS011;9428;50.950;6.912;2023-02-28T16:11:59;5.07;;;3.00;;
18596;SDS011;9428;50.950;6.912;2023-02-28T16:14:48;4.47;;;2.40;;
18596;SDS011;9428;50.950;6.912;2023-02-28T16:17:39;4.27;;;2.70;;
18596;SDS011;9428;50.950;6.912;2023-02-28T16:20:27;3.87;;;2.77;;
18596;SDS011;9428;50.950;6.912;2023-02-28T16:23:17;3.73;;;2.47;;
18596;SDS011;9428;50.950;6.912;2023-02-28T16:26:04;3.67;;;2.73;;
18596;SDS011;9428;50.950;6.912;2023-02-28T16:28:53;5.37;;;2.83;;
18596;SDS011;9428;50.950;6.912;2023-02-28T16:31:42;5.17;;;2.83;;
18596;SDS011;9428;50.950;6.912;2023-02-28T16:34:29;5.53;;;2.90;;
18596;SDS011;9428;50.950;6.912;2023-02-28T16:37:17;4.67;;;2.77;;
18596;SDS011;9428;50.950;6.912;2023-02-28T16:40:07;4.70;;;2.57;;
18596;SDS011;9428;50.950;6.912;2023-02-28T16:43:00;4.20;;;3.00;;
18596;SDS011;9428;50.950;6.912;2023-02-28T16:45:54;3.40;;;2.00;;
18596;SDS011;9428;50.950;6.912;2023-02-28T16:48:43;4.97;;;2.60;;
18596;SDS011;9428;50.950;6.912;2023-02-28T16:51:31;2.57;;;2.17;;
18596;SDS011;9428;50.950;6.912;2023-02-28T16:54:18;5.27;;;2.50;;
18596;SDS011;9428;50.950;6.912;2023-02-28T16:57:08;4.43;;;2.43;;
18596;SDS011;9428;50.950;6.912;2023-02-28T17:00:04;4.43;;;2.53;;
18596;SDS011;9428;50.950;6.912;2023-02-28T17:02:54;5.17;;;2.40;;
18596;SDS011;9428;50.950;6.912;2023-02-28T17:05:44;6.17;;;3.13;;
18596;SDS011;9428;50.950;6.912;2023-02-28T17:08:32;4.77;;;2.70;;
18596;SDS011;9428;50.950;6.912;2023-02-28T17:11:19;5.97;;;2.50;;
18596;SDS011;9428;50.950;6.912;2023-02-28T17:14:09;5.40;;;2.90;;
18596;SDS011;9428;50.950;6.912;2023-02-28T17:16:56;5.63;;;2.83;;
18596;SDS011;9428;50.950;6.912;2023-02-28T17:19:45;4.43;;;2.80;;
18596;SDS011;9428;50.950;6.912;2023-02-28T17:22:35;4.37;;;2.50;;
18596;SDS011;9428;50.950;6.912;2023-02-28T17:25:24;7.67;;;2.83;;
18596;SDS011;9428;50.950;6.912;2023-02-28T17:28:11;3.73;;;2.80;;
18596;SDS011;9428;50.950;6.912;2023-02-28T17:31:00;6.97;;;2.80;;
18596;SDS011;9428;50.950;6.912;2023-02-28T17:33:47;4.50;;;2.53;;
18596;SDS011;9428;50.950;6.912;2023-02-28T17:36:35;4.73;;;2.60;;
18596;SDS011;9428;50.950;6.912;2023-02-28T17:39:23;6.00;;;3.03;;
18596;SDS011;9428;50.950;6.912;2023-02-28T17:42:10;5.67;;;3.30;;
18596;SDS011;9428;50.950;6.912;2023-02-28T17:44:57;4.17;;;2.60;;
18596;SDS011;9428;50.950;6.912;2023-02-28T17:47:46;3.87;;;2.63;;
18596;SDS011;9428;50.950;6.912;2023-02-28T17:50:35;7.00;;;3.20;;
18596;SDS011;9428;50.950;6.912;2023-02-28T17:53:22;4.80;;;3.20;;
18596;SDS011;9428;50.950;6.912;2023-02-28T17:56:11;5.47;;;3.70;;
18596;SDS011;9428;50.950;6.912;2023-02-28T17:59:00;8.47;;;3.13;;
18596;SDS011;9428;50.950;6.912;2023-02-28T18:01:49;4.37;;;3.30;;